Time;durP1;ratioP1;P1;durP2;ratioP2;P2;SDS_P1;SDS_P2;PMS_P1;PMS_P2;Temp;Humidity;BMP_temperature;BMP_pressure;BME280_temperature;BME280_humidity;BME280_pressure;Samples;Min_cycle;Max_cycle;Signal;HPM_P1;HPM_P2
2023/06/01 00:00:01;;;;;;;48.22;30.17;;;15.00;99.90;;;;;;5271421;28;20054;-70
2023/06/01 00:02:32;;;;;;;35.30;32.17;;;14.90;99.90;;;;;;5271289;28;20051;-66
2023/06/01 00:05:03;;;;;;;35.70;32.78;;;15.30;99.90;;;;;;5271351;28;20024;-67
2023/06/01 00:07:34;;;;;;;37.72;32.70;;;15.30;99.90;;;;;;5271300;28;20035;-71
2023/06/01 00:10:06;;;;;;;48.88;33.03;;;15.10;99.90;;;;;;5271195;28;20023;-70
2023/06/01 00:12:36;;;;;;;62.97;34.83;;;15.40;99.90;;;;;;5271139;28;20422;-66
2023/06/01 00:15:08;;;;;;;38.53;34.70;;;15.20;99.90;;;;;;5271153;28;20028;-69
2023/06/01 00:17:39;;;;;;;48.40;35.80;;;15.40;99.90;;;;;;5271124;28;20380;-71
2023/06/01 00:20:10;;;;;;;49.80;32.92;;;15.30;99.90;;;;;;5271196;28;20028;-67
2023/06/01 00:22:42;;;;;;;41.25;33.97;;;14.90;99.90;;;;;;5271141;28;20111;-67
2023/06/01 00:25:13;;;;;;;39.78;36.25;;;14.70;99.90;;;;;;5271111;28;20020;-67
2023/06/01 00:27:44;;;;;;;51.30;35.80;;;14.80;99.90;;;;;;5270755;28;20080;-66
2023/06/01 00:30:15;;;;;;;37.92;33.97;;;14.80;99.90;;;;;;5271009;28;20024;-67
2023/06/01 00:32:46;;;;;;;42.95;34.28;;;14.80;99.90;;;;;;5270953;28;20107;-69
2023/06/01 00:35:17;;;;;;;47.78;34.15;;;14.80;99.90;;;;;;5270863;28;20110;-71
2023/06/01 00:37:48;;;;;;;36.28;33.28;;;14.80;99.90;;;;;;5270635;28;20023;-70
2023/06/01 00:40:19;;;;;;;36.97;33.35;;;14.90;99.90;;;;;;5270658;28;20024;-71
2023/06/01 00:42:50;;;;;;;46.75;33.63;;;14.80;99.90;;;;;;5270600;28;20024;-69
2023/06/01 00:45:21;;;;;;;37.13;33.72;;;14.70;99.90;;;;;;5270621;28;20460;-67
2023/06/01 00:47:52;;;;;;;48.15;34.72;;;14.70;99.90;;;;;;5270172;28;20105;-67
2023/06/01 00:50:24;;;;;;;49.22;34.75;;;14.60;99.90;;;;;;5270610;28;20024;-68
2023/06/01 00:52:57;;;;;;;58.45;33.85;;;14.50;99.90;;;;;;5270453;28;20498;-69
2023/06/01 00:55:28;;;;;;;42.97;32.58;;;14.50;99.90;;;;;;5270411;28;20048;-71
2023/06/01 00:57:59;;;;;;;47.40;34.67;;;14.70;99.90;;;;;;5270166;28;20047;-69
2023/06/01 01:00:31;;;;;;;34.42;31.10;;;14.40;99.90;;;;;;5270396;28;20490;-67
2023/06/01 01:03:06;;;;;;;36.33;33.10;;;14.50;99.90;;;;;;5270174;28;20065;-70
2023/06/01 01:05:39;;;;;;;36.88;33.90;;;14.50;99.90;;;;;;5270242;28;20031;-70
2023/06/01 01:08:20;;;;;;;35.45;32.72;;;14.50;99.90;;;;;;5269674;28;20131;-67
2023/06/01 01:11:17;;;;;;;35.25;32.40;;;14.60;99.90;;;;;;5270050;28;20375;-69
2023/06/01 01:13:58;;;;;;;37.75;35.05;;;14.60;99.90;;;;;;5270137;28;20519;-71
2023/06/01 01:16:40;;;;;;;36.03;33.08;;;14.60;99.90;;;;;;5269695;28;20035;-70
2023/06/01 01:19:16;;;;;;;36.47;33.63;;;14.50;99.90;;;;;;5269910;28;20024;-69
2023/06/01 01:21:58;;;;;;;36.20;33.33;;;14.40;99.90;;;;;;5269870;28;20448;-67
2023/06/01 01:25:05;;;;;;;34.67;32.25;;;14.40;99.90;;;;;;5269773;28;20032;-68
2023/06/01 01:27:52;;;;;;;37.28;33.55;;;14.50;99.90;;;;;;5269515;28;20032;-70
2023/06/01 01:30:28;;;;;;;38.58;35.63;;;14.40;99.90;;;;;;5269753;28;20376;-69
2023/06/01 01:33:03;;;;;;;36.20;33.78;;;14.40;99.90;;;;;;5269739;28;20078;-69
2023/06/01 01:35:34;;;;;;;37.60;34.22;;;14.40;99.90;;;;;;5269480;28;20112;-70
2023/06/01 01:38:05;;;;;;;34.90;32.30;;;14.30;99.90;;;;;;5269421;28;20543;-68
2023/06/01 01:40:36;;;;;;;36.88;34.25;;;14.20;99.90;;;;;;5269471;28;20103;-70
2023/06/01 01:43:07;;;;;;;37.55;35.05;;;14.30;99.90;;;;;;5269472;28;20027;-69
2023/06/01 01:45:38;;;;;;;36.70;33.63;;;14.30;99.90;;;;;;5269755;28;20078;-69
2023/06/01 01:48:25;;;;;;;36.40;33.55;;;14.20;99.90;;;;;;5246867;28;20874;-70
2023/06/01 01:51:02;;;;;;;38.47;35.85;;;14.10;99.90;;;;;;5248522;28;20372;-68
2023/06/01 01:53:35;;;;;;;36.95;34.42;;;14.00;99.90;;;;;;5248394;28;20032;-69
2023/06/01 01:56:07;;;;;;;41.05;38.28;;;14.20;99.90;;;;;;5248349;28;20020;-68
2023/06/01 01:58:40;;;;;;;40.10;37.17;;;14.20;99.90;;;;;;5248322;28;20025;-71
2023/06/01 02:01:12;;;;;;;40.47;37.50;;;14.20;99.90;;;;;;5248132;28;20028;-69
2023/06/01 02:03:43;;;;;;;37.25;34.60;;;14.00;99.90;;;;;;5246916;28;20464;-70
2023/06/01 02:06:14;;;;;;;40.85;37.95;;;14.00;99.90;;;;;;5247965;28;20106;-69
2023/06/01 02:08:44;;;;;;;39.80;37.10;;;14.00;99.90;;;;;;5247901;28;20044;-71
2023/06/01 02:11:15;;;;;;;39.03;36.08;;;14.00;99.90;;;;;;5248078;28;20442;-69
2023/06/01 02:13:47;;;;;;;41.15;38.35;;;13.90;99.90;;;;;;5246595;28;20024;-69
2023/06/01 02:16:18;;;;;;;40.08;36.75;;;14.00;99.90;;;;;;5247744;28;20021;-70
2023/06/01 02:18:50;;;;;;;36.70;34.03;;;13.90;99.90;;;;;;5247051;28;20035;-70
2023/06/01 02:21:21;;;;;;;37.72;35.28;;;13.90;99.90;;;;;;5247854;28;20468;-67
2023/06/01 02:23:52;;;;;;;39.53;36.83;;;13.70;99.90;;;;;;5247649;28;20060;-70
2023/06/01 02:26:23;;;;;;;38.60;36.00;;;13.70;99.90;;;;;;5247741;28;20064;-67
2023/06/01 02:28:54;;;;;;;35.95;33.40;;;13.70;99.90;;;;;;5247460;28;20396;-68
2023/06/01 02:31:25;;;;;;;38.10;35.58;;;13.60;99.90;;;;;;5247651;28;20427;-69
2023/06/01 02:33:56;;;;;;;35.63;32.97;;;13.60;99.90;;;;;;5247604;28;20025;-67
2023/06/01 02:36:28;;;;;;;37.08;34.50;;;13.60;99.90;;;;;;5247554;28;20566;-68
2023/06/01 02:38:59;;;;;;;41.67;38.67;;;13.60;99.90;;;;;;5247434;28;20029;-67
2023/06/01 02:41:30;;;;;;;42.55;39.67;;;13.60;99.90;;;;;;5247463;28;20031;-69
2023/06/01 02:44:02;;;;;;;39.30;36.55;;;13.30;99.90;;;;;;5247472;28;20060;-70
2023/06/01 02:46:34;;;;;;;44.35;41.17;;;13.40;99.90;;;;;;5247310;28;20021;-69
2023/06/01 02:49:05;;;;;;;45.92;42.15;;;13.40;99.90;;;;;;5264469;28;20052;-69
2023/06/01 02:51:35;;;;;;;49.45;45.35;;;13.40;99.90;;;;;;5250083;28;20541;-70
2023/06/01 02:54:07;;;;;;;48.95;45.13;;;13.40;99.90;;;;;;5268130;28;20503;-68
2023/06/01 02:56:37;;;;;;;50.17;45.47;;;13.50;99.90;;;;;;5268139;28;20103;-66
2023/06/01 02:59:08;;;;;;;50.47;46.22;;;13.40;99.90;;;;;;5268103;28;20020;-67
2023/06/01 03:01:40;;;;;;;49.70;45.72;;;13.40;99.90;;;;;;5268126;28;20444;-71
2023/06/01 03:04:12;;;;;;;45.80;42.60;;;13.50;99.90;;;;;;5268026;28;20055;-70
2023/06/01 03:06:43;;;;;;;49.28;45.63;;;13.30;99.90;;;;;;5267849;28;20028;-68
2023/06/01 03:09:14;;;;;;;46.97;43.67;;;13.50;99.90;;;;;;5268109;28;20468;-66
2023/06/01 03:11:45;;;;;;;47.20;43.88;;;13.60;99.90;;;;;;5268093;28;20141;-69
2023/06/01 03:14:15;;;;;;;46.47;43.20;;;13.60;99.90;;;;;;5268289;28;20066;-68
2023/06/01 03:16:46;;;;;;;45.05;41.80;;;13.80;99.90;;;;;;5267932;28;20426;-69
2023/06/01 03:19:17;;;;;;;42.15;39.05;;;13.80;99.90;;;;;;5267825;28;20020;-67
2023/06/01 03:21:48;;;;;;;46.15;42.83;;;13.90;99.90;;;;;;5249767;28;20081;-68
2023/06/01 03:24:19;;;;;;;43.20;39.88;;;13.90;99.90;;;;;;5267974;28;20024;-69
2023/06/01 03:26:50;;;;;;;45.33;41.72;;;13.80;99.90;;;;;;5267770;28;20024;-69
2023/06/01 03:29:21;;;;;;;42.95;39.47;;;13.90;99.90;;;;;;5267868;28;20373;-68
2023/06/01 03:31:52;;;;;;;73.30;44.80;;;13.90;99.90;;;;;;5253816;28;20031;-70
2023/06/01 03:34:23;;;;;;;46.35;41.83;;;13.70;99.90;;;;;;5272088;28;20082;-71
2023/06/01 03:36:54;;;;;;;77.53;45.97;;;13.70;99.90;;;;;;5253872;28;20016;-67
2023/06/01 03:39:25;;;;;;;49.30;44.60;;;13.40;99.90;;;;;;5271879;28;20028;-68
2023/06/01 03:41:56;;;;;;;45.00;41.25;;;13.40;99.90;;;;;;5271857;28;20023;-70
2023/06/01 03:44:27;;;;;;;49.38;45.03;;;13.60;99.90;;;;;;5271837;28;20035;-67
2023/06/01 03:46:58;;;;;;;45.95;42.00;;;13.40;99.90;;;;;;5271377;28;20035;-67
2023/06/01 03:49:29;;;;;;;45.47;41.90;;;13.40;99.90;;;;;;5271499;28;20052;-68
2023/06/01 03:52:00;;;;;;;43.92;40.63;;;13.80;99.90;;;;;;5271782;28;20031;-70
2023/06/01 03:54:30;;;;;;;47.30;43.53;;;14.00;99.90;;;;;;5271677;28;20043;-69
2023/06/01 03:57:01;;;;;;;43.00;39.50;;;14.20;99.90;;;;;;5271499;28;20356;-67
2023/06/01 03:59:32;;;;;;;42.17;38.72;;;14.30;99.90;;;;;;5253302;28;20026;-69
2023/06/01 04:02:04;;;;;;;45.00;41.15;;;14.30;99.90;;;;;;5271396;28;20035;-70
2023/06/01 04:04:35;;;;;;;43.58;39.65;;;14.30;99.90;;;;;;5271448;28;20022;-69
2023/06/01 04:07:09;;;;;;;45.88;41.90;;;14.40;99.90;;;;;;5271351;28;20035;-67
2023/06/01 04:09:41;;;;;;;43.45;39.47;;;14.40;99.90;;;;;;5271240;28;20487;-68
2023/06/01 04:12:13;;;;;;;45.20;40.50;;;14.30;99.90;;;;;;5271232;28;20024;-67
2023/06/01 04:14:44;;;;;;;42.17;38.20;;;14.50;99.90;;;;;;5271256;28;20047;-68
2023/06/01 04:17:16;;;;;;;44.13;39.75;;;14.60;99.90;;;;;;5270883;28;20546;-68
2023/06/01 04:19:48;;;;;;;42.40;38.55;;;14.70;99.90;;;;;;5271092;28;20089;-69
2023/06/01 04:22:19;;;;;;;42.28;38.20;;;14.80;99.90;;;;;;5271107;28;20023;-70
2023/06/01 04:24:50;;;;;;;40.92;36.85;;;14.90;99.90;;;;;;5271041;28;20032;-69
2023/06/01 04:27:24;;;;;;;40.88;36.88;;;14.90;99.90;;;;;;5270840;28;20464;-68
2023/06/01 04:29:58;;;;;;;39.05;35.28;;;14.90;99.90;;;;;;5271036;28;20063;-68
2023/06/01 04:32:29;;;;;;;38.88;34.80;;;15.10;99.90;;;;;;5270952;28;20017;-70
2023/06/01 04:35:01;;;;;;;37.13;33.63;;;15.00;99.90;;;;;;5270808;28;20028;-67
2023/06/01 04:37:37;;;;;;;38.63;34.58;;;15.00;99.90;;;;;;5270698;28;20016;-72
2023/06/01 04:40:09;;;;;;;37.97;34.25;;;15.10;99.90;;;;;;5270712;28;20431;-69
2023/06/01 04:42:42;;;;;;;41.03;36.72;;;15.30;99.90;;;;;;5270122;28;20027;-71
2023/06/01 04:45:13;;;;;;;37.63;34.03;;;15.40;99.90;;;;;;5270439;28;20025;-67
2023/06/01 04:47:47;;;;;;;36.38;32.92;;;15.50;99.90;;;;;;5251816;28;20055;-70
2023/06/01 04:50:19;;;;;;;39.40;35.85;;;15.60;99.90;;;;;;5270628;28;20027;-68
2023/06/01 04:52:50;;;;;;;40.75;36.95;;;15.80;99.90;;;;;;5270431;28;20024;-68
2023/06/01 04:55:21;;;;;;;39.25;35.33;;;16.00;99.90;;;;;;5270495;28;20360;-68
2023/06/01 04:57:52;;;;;;;38.90;35.15;;;16.30;99.90;;;;;;5252360;28;20313;-67
2023/06/01 05:00:23;;;;;;;37.28;33.78;;;16.40;99.90;;;;;;5270304;28;20031;-67
2023/06/01 05:02:54;;;;;;;39.53;35.85;;;16.50;99.90;;;;;;5270410;28;20020;-67
2023/06/01 05:05:25;;;;;;;39.80;36.33;;;16.70;99.90;;;;;;5270250;28;20067;-68
2023/06/01 05:07:56;;;;;;;36.60;33.45;;;16.90;99.90;;;;;;5270077;28;20044;-67
2023/06/01 05:10:26;;;;;;;38.22;35.10;;;17.00;99.90;;;;;;5270152;28;20091;-68
2023/06/01 05:12:57;;;;;;;37.47;34.28;;;17.00;99.90;;;;;;5270071;28;20375;-68
2023/06/01 05:15:30;;;;;;;35.35;32.15;;;17.10;99.90;;;;;;5269939;28;20710;-70
2023/06/01 05:18:01;;;;;;;36.85;33.55;;;17.10;99.90;;;;;;5269729;28;20032;-67
2023/06/01 05:20:32;;;;;;;33.38;30.52;;;17.20;99.90;;;;;;5251652;28;20737;-69
2023/06/01 05:23:03;;;;;;;35.30;31.95;;;17.20;99.90;;;;;;5269885;28;20027;-68
2023/06/01 05:25:33;;;;;;;35.50;32.60;;;17.40;99.90;;;;;;5269710;28;20552;-67
2023/06/01 05:28:04;;;;;;;35.15;32.22;;;17.30;99.90;;;;;;5269714;28;20502;-69
2023/06/01 05:30:35;;;;;;;36.00;32.92;;;17.40;99.90;;;;;;5269686;28;20028;-69
2023/06/01 05:33:06;;;;;;;35.60;32.67;;;17.50;99.90;;;;;;5269712;28;20028;-67
2023/06/01 05:35:37;;;;;;;35.75;32.88;;;17.50;99.90;;;;;;5269509;28;20084;-67
2023/06/01 05:38:08;;;;;;;38.38;35.20;;;17.60;99.90;;;;;;5269552;28;20537;-68
2023/06/01 05:40:39;;;;;;;39.75;36.28;;;17.80;99.90;;;;;;5269372;28;20103;-69
2023/06/01 05:43:10;;;;;;;37.53;34.63;;;17.80;99.90;;;;;;5269395;28;20035;-68
2023/06/01 05:45:41;;;;;;;38.15;35.15;;;17.80;99.90;;;;;;5269399;28;20552;-69
2023/06/01 05:48:14;;;;;;;39.10;36.05;;;17.90;99.90;;;;;;5268809;28;20135;-71
2023/06/01 05:50:45;;;;;;;36.40;33.35;;;17.90;99.90;;;;;;5269137;28;20077;-70
2023/06/01 05:53:16;;;;;;;36.13;32.97;;;18.20;99.90;;;;;;5268311;28;20024;-67
2023/06/01 05:55:47;;;;;;;37.88;34.83;;;18.40;99.90;;;;;;5268909;28;20469;-68
2023/06/01 05:58:17;;;;;;;35.40;32.47;;;18.50;99.90;;;;;;5269089;28;20023;-70
2023/06/01 06:00:48;;;;;;;34.35;31.75;;;18.50;99.90;;;;;;5268885;28;20026;-70
2023/06/01 06:03:19;;;;;;;33.17;30.80;;;18.70;99.90;;;;;;5268947;28;20421;-69
2023/06/01 06:05:50;;;;;;;33.33;30.58;;;19.10;99.90;;;;;;5269136;28;20088;-69
2023/06/01 06:08:21;;;;;;;31.92;29.33;;;19.20;99.90;;;;;;5269148;28;20063;-71
2023/06/01 06:10:52;;;;;;;29.13;27.02;;;19.20;99.90;;;;;;5269285;28;20559;-71
2023/06/01 06:13:23;;;;;;;28.33;26.23;;;19.40;99.90;;;;;;5268963;28;20027;-67
2023/06/01 06:15:55;;;;;;;27.08;24.98;;;19.40;99.90;;;;;;5268846;28;20380;-67
2023/06/01 06:18:25;;;;;;;29.73;27.65;;;19.50;99.90;;;;;;5268520;28;20075;-72
2023/06/01 06:20:56;;;;;;;30.25;28.25;;;19.60;99.90;;;;;;5268649;28;20070;-68
2023/06/01 06:23:30;;;;;;;30.45;28.13;;;19.70;99.90;;;;;;5268676;28;20031;-69
2023/06/01 06:26:00;;;;;;;29.30;27.17;;;19.70;99.90;;;;;;5268636;28;20024;-71
2023/06/01 06:28:31;;;;;;;29.38;27.13;;;19.60;99.90;;;;;;5268552;28;20055;-66
2023/06/01 06:31:03;;;;;;;31.67;29.27;;;19.50;99.90;;;;;;5268537;28;20020;-67
2023/06/01 06:33:35;;;;;;;29.52;27.08;;;19.80;99.90;;;;;;5268407;28;20022;-70
2023/06/01 06:36:06;;;;;;;28.67;26.73;;;20.20;99.90;;;;;;5268499;28;20046;-71
2023/06/01 06:38:37;;;;;;;28.88;26.58;;;20.30;99.90;;;;;;5268444;28;20042;-70
2023/06/01 06:41:07;;;;;;;31.83;29.60;;;20.40;99.90;;;;;;5268319;28;20093;-67
2023/06/01 06:43:38;;;;;;;31.67;29.58;;;20.50;99.90;;;;;;5268244;28;20020;-69
2023/06/01 06:46:09;;;;;;;31.80;29.85;;;20.60;99.90;;;;;;5268235;28;20016;-68
2023/06/01 06:48:40;;;;;;;33.03;30.65;;;20.50;99.90;;;;;;5267751;28;20059;-69
2023/06/01 06:51:11;;;;;;;32.40;30.02;;;20.60;99.90;;;;;;5268117;28;20096;-68
2023/06/01 06:53:42;;;;;;;33.65;31.13;;;20.70;99.90;;;;;;5268099;28;20383;-69
2023/06/01 06:56:13;;;;;;;33.97;31.60;;;20.70;99.90;;;;;;5268083;28;20028;-68
2023/06/01 06:58:45;;;;;;;34.05;31.75;;;20.70;99.90;;;;;;5267968;28;20024;-70
2023/06/01 07:01:16;;;;;;;33.08;30.60;;;20.70;99.90;;;;;;5249859;28;20030;-69
2023/06/01 07:03:47;;;;;;;31.13;29.05;;;20.80;99.90;;;;;;5267913;28;20024;-67
2023/06/01 07:06:18;;;;;;;31.80;29.75;;;21.00;99.90;;;;;;5267598;28;20055;-67
2023/06/01 07:08:49;;;;;;;30.15;28.05;;;21.10;99.90;;;;;;5267836;28;20043;-68
2023/06/01 07:11:20;;;;;;;30.85;28.92;;;21.20;99.90;;;;;;5267866;28;20028;-68
2023/06/01 07:13:51;;;;;;;30.13;28.17;;;21.00;99.90;;;;;;5267883;28;20447;-68
2023/06/01 07:16:23;;;;;;;29.48;27.30;;;21.20;99.90;;;;;;5267702;28;20100;-69
2023/06/01 07:18:54;;;;;;;28.67;26.83;;;21.40;99.90;;;;;;5249804;28;20036;-67
2023/06/01 07:21:25;;;;;;;26.05;24.30;;;21.40;99.90;;;;;;5267878;28;20505;-72
2023/06/01 07:23:56;;;;;;;25.25;23.40;;;21.60;99.90;;;;;;5268091;28;20033;-69
2023/06/01 07:26:28;;;;;;;24.40;22.55;;;21.40;99.90;;;;;;5267746;28;20016;-71
2023/06/01 07:29:00;;;;;;;24.65;23.08;;;21.60;99.90;;;;;;5267724;28;20036;-68
2023/06/01 07:31:32;;;;;;;26.02;23.38;;;21.50;99.90;;;;;;5267677;28;20024;-70
2023/06/01 07:34:03;;;;;;;27.85;26.15;;;21.20;99.90;;;;;;5267816;28;20021;-72
2023/06/01 07:36:36;;;;;;;25.48;23.70;;;21.60;99.90;;;;;;5267956;28;20020;-70
2023/06/01 07:39:08;;;;;;;25.08;23.45;;;21.70;99.90;;;;;;5267963;28;20026;-69
2023/06/01 07:41:39;;;;;;;29.00;27.02;;;21.90;99.90;;;;;;5267735;28;20055;-67
2023/06/01 07:44:12;;;;;;;25.23;23.63;;;21.90;99.90;;;;;;5267872;28;20479;-69
2023/06/01 07:46:43;;;;;;;23.65;22.05;;;22.00;99.90;;;;;;5267499;28;20032;-67
2023/06/01 07:49:15;;;;;;;25.42;23.73;;;22.00;99.90;;;;;;5267412;28;20059;-67
2023/06/01 07:51:46;;;;;;;25.83;24.13;;;21.90;99.90;;;;;;5267705;28;20024;-67
2023/06/01 07:54:18;;;;;;;27.42;25.73;;;21.70;99.90;;;;;;5267563;28;20028;-68
2023/06/01 07:56:49;;;;;;;28.65;26.67;;;21.90;99.90;;;;;;5267518;28;20028;-68
2023/06/01 07:59:23;;;;;;;27.83;26.08;;;22.20;99.90;;;;;;5267548;28;20027;-70
2023/06/01 08:01:55;;;;;;;24.15;22.67;;;22.20;99.90;;;;;;5267613;28;20918;-68
2023/06/01 08:04:27;;;;;;;28.67;26.55;;;22.00;99.90;;;;;;5267475;28;20025;-71
2023/06/01 08:06:58;;;;;;;26.65;24.95;;;22.00;99.90;;;;;;5263225;28;20034;-68
2023/06/01 08:09:29;;;;;;;26.20;24.50;;;22.20;99.90;;;;;;5246615;28;20556;-71
2023/06/01 08:12:00;;;;;;;26.33;24.48;;;22.40;99.90;;;;;;5246450;28;20380;-72
2023/06/01 08:14:33;;;;;;;25.08;23.20;;;22.40;99.90;;;;;;5228752;28;20028;-68
2023/06/01 08:17:06;;;;;;;24.02;22.25;;;22.00;99.90;;;;;;5247212;28;20107;-67
2023/06/01 08:19:37;;;;;;;22.67;21.27;;;22.60;99.90;;;;;;5250111;28;20423;-71
2023/06/01 08:22:08;;;;;;;22.42;20.80;;;22.80;99.90;;;;;;5250250;28;20028;-67
2023/06/01 08:24:39;;;;;;;22.80;21.23;;;22.90;99.90;;;;;;5250223;28;20678;-68
2023/06/01 08:27:21;;;;;;;22.77;21.35;;;23.00;99.90;;;;;;5249932;28;20364;-71
2023/06/01 08:29:52;;;;;;;21.58;20.05;;;22.90;99.90;;;;;;5250064;28;20067;-68
2023/06/01 08:32:23;;;;;;;18.75;17.42;;;23.00;99.90;;;;;;5232123;28;20036;-72
2023/06/01 08:34:54;;;;;;;18.02;16.92;;;23.10;99.90;;;;;;5249861;28;20028;-67
2023/06/01 08:37:25;;;;;;;19.02;17.70;;;23.20;99.90;;;;;;5249709;28;20058;-70
2023/06/01 08:39:56;;;;;;;19.48;18.10;;;23.30;99.90;;;;;;5249817;28;20019;-67
2023/06/01 08:42:41;;;;;;;19.63;18.42;;;23.60;99.90;;;;;;5249724;28;20024;-69
2023/06/01 08:45:13;;;;;;;20.83;19.42;;;23.30;99.90;;;;;;5249653;28;20048;-69
2023/06/01 08:47:46;;;;;;;21.23;19.88;;;23.20;99.90;;;;;;5249147;28;20056;-67
2023/06/01 08:50:17;;;;;;;18.83;17.52;;;23.40;99.90;;;;;;5249647;28;20021;-71
2023/06/01 08:52:53;;;;;;;19.70;18.42;;;23.70;99.90;;;;;;5249554;28;20013;-67
2023/06/01 08:55:24;;;;;;;20.58;18.58;;;23.60;99.90;;;;;;5249556;28;20056;-68
2023/06/01 08:57:55;;;;;;;20.67;18.98;;;23.90;99.90;;;;;;5231613;28;20487;-68
2023/06/01 09:00:30;;;;;;;21.23;19.60;;;23.80;99.90;;;;;;5249458;28;20021;-67
2023/06/01 09:03:02;;;;;;;19.58;18.20;;;23.70;99.90;;;;;;5231918;28;20464;-72
2023/06/01 09:05:33;;;;;;;20.88;19.30;;;23.90;99.90;;;;;;5249625;28;20460;-69
2023/06/01 09:08:04;;;;;;;22.63;21.08;;;24.00;99.90;;;;;;5249298;28;20076;-68
2023/06/01 09:10:36;;;;;;;20.52;19.13;;;24.10;99.90;;;;;;5249325;28;20514;-68
2023/06/01 09:13:07;;;;;;;20.40;19.20;;;24.00;99.90;;;;;;5249078;28;20087;-68
2023/06/01 09:15:52;;;;;;;22.23;18.10;;;23.90;99.90;;;;;;5249064;28;20028;-69
2023/06/01 09:18:23;;;;;;;21.35;19.73;;;24.00;99.90;;;;;;5256505;28;20047;-69
2023/06/01 09:20:56;;;;;;;19.35;17.83;;;24.20;99.90;;;;;;5260976;28;20070;-67
2023/06/01 09:23:27;;;;;;;18.50;17.30;;;24.10;99.90;;;;;;5256762;28;20025;-67
2023/06/01 09:26:09;;;;;;;19.90;18.63;;;24.30;99.90;;;;;;5262902;28;20020;-67
2023/06/01 09:28:55;;;;;;;20.95;19.70;;;24.50;99.90;;;;;;5238579;28;20072;-71
2023/06/01 09:31:40;;;;;;;21.17;19.77;;;24.30;99.90;;;;;;5250282;28;20233;-69
2023/06/01 09:34:18;;;;;;;19.25;17.98;;;24.40;99.90;;;;;;5248749;28;20078;-67
2023/06/01 09:36:54;;;;;;;20.25;18.73;;;24.40;99.90;;;;;;5248616;28;20020;-70
2023/06/01 09:39:25;;;;;;;20.92;19.23;;;24.30;99.90;;;;;;5248506;28;20063;-70
2023/06/01 09:42:06;;;;;;;19.42;18.20;;;24.20;99.90;;;;;;5248639;28;20787;-68
2023/06/01 09:44:39;;;;;;;20.58;18.92;;;24.30;99.90;;;;;;5248535;28;20033;-71
2023/06/01 09:47:12;;;;;;;20.15;18.80;;;24.30;99.90;;;;;;5247967;28;20106;-68
2023/06/01 09:49:44;;;;;;;20.52;18.65;;;24.30;99.90;;;;;;5248458;28;20115;-67
2023/06/01 09:52:17;;;;;;;19.40;18.20;;;24.30;99.90;;;;;;5248392;28;20150;-67
2023/06/01 09:54:49;;;;;;;18.42;17.30;;;24.30;99.90;;;;;;5248298;28;20102;-67
2023/06/01 09:57:23;;;;;;;18.67;17.58;;;24.10;99.90;;;;;;5248118;28;20484;-66
2023/06/01 09:59:54;;;;;;;23.70;22.30;;;24.30;99.90;;;;;;5247952;28;20028;-69
2023/06/01 10:02:25;;;;;;;20.15;18.85;;;24.40;99.90;;;;;;5248064;28;20020;-67
2023/06/01 10:04:59;;;;;;;21.15;19.90;;;24.60;99.90;;;;;;5248091;28;20051;-70
2023/06/01 10:07:33;;;;;;;19.88;18.48;;;24.30;99.90;;;;;;5247878;28;20039;-69
2023/06/01 10:10:04;;;;;;;18.38;17.23;;;23.90;99.90;;;;;;5247961;28;20025;-67
2023/06/01 10:12:35;;;;;;;20.00;18.80;;;23.90;99.90;;;;;;5247975;28;20021;-69
2023/06/01 10:15:07;;;;;;;20.80;19.30;;;24.40;99.90;;;;;;5247874;28;20024;-68
2023/06/01 10:17:42;;;;;;;20.10;18.80;;;24.50;99.90;;;;;;5247598;28;20029;-68
2023/06/01 10:20:14;;;;;;;19.83;18.55;;;24.50;99.90;;;;;;5247827;28;20020;-69
2023/06/01 10:22:46;;;;;;;19.23;18.05;;;24.70;99.90;;;;;;5247760;28;20027;-67
2023/06/01 10:25:20;;;;;;;17.55;16.48;;;24.80;99.90;;;;;;5247706;28;20099;-68
2023/06/01 10:28:09;;;;;;;17.25;16.02;;;24.30;99.90;;;;;;5247597;28;20090;-68
2023/06/01 10:30:40;;;;;;;18.27;17.00;;;24.60;99.90;;;;;;5247907;28;20377;-68
2023/06/01 10:33:11;;;;;;;19.13;17.67;;;24.90;99.90;;;;;;5247946;28;20040;-68
2023/06/01 10:35:51;;;;;;;16.50;15.15;;;24.80;99.90;;;;;;5247625;28;20023;-69
2023/06/01 10:38:23;;;;;;;15.40;14.40;;;24.50;99.90;;;;;;5247661;28;20039;-68
2023/06/01 10:41:27;;;;;;;15.07;13.88;;;24.80;99.90;;;;;;5246909;28;20017;-69
2023/06/01 10:43:58;;;;;;;16.77;15.48;;;24.40;99.90;;;;;;5247580;28;20016;-67
2023/06/01 10:46:37;;;;;;;17.23;16.02;;;25.00;99.90;;;;;;5247313;28;20025;-67
2023/06/01 10:49:08;;;;;;;17.03;15.73;;;25.00;99.90;;;;;;5247216;28;20056;-68
2023/06/01 10:51:39;;;;;;;16.77;15.57;;;24.60;99.90;;;;;;5247386;28;20020;-68
2023/06/01 10:54:30;;;;;;;16.30;15.38;;;24.80;99.90;;;;;;5247385;28;20035;-70
2023/06/01 10:57:21;;;;;;;15.90;14.73;;;24.70;99.90;;;;;;5247385;28;20447;-70
2023/06/01 11:00:17;;;;;;;15.93;14.57;;;25.10;99.90;;;;;;5247144;28;20043;-67
2023/06/01 11:03:00;;;;;;;16.80;15.55;;;25.10;99.90;;;;;;5247255;28;20374;-67
2023/06/01 11:05:48;;;;;;;15.63;14.32;;;25.10;99.90;;;;;;5247284;28;20031;-70
2023/06/01 11:08:29;;;;;;;17.50;16.40;;;25.30;99.90;;;;;;5247080;28;20056;-69
2023/06/01 11:11:06;;;;;;;16.90;15.90;;;25.20;99.90;;;;;;5247234;28;20029;-67
2023/06/01 11:13:37;;;;;;;17.55;16.35;;;25.20;99.90;;;;;;5247153;28;20029;-69
2023/06/01 11:16:12;;;;;;;17.88;16.63;;;25.30;99.90;;;;;;5246943;28;20021;-68
2023/06/01 11:18:45;;;;;;;16.45;15.52;;;25.40;99.90;;;;;;5246992;28;20122;-67
2023/06/01 11:21:20;;;;;;;16.48;15.43;;;25.20;99.90;;;;;;5246930;28;20491;-68
2023/06/01 11:23:53;;;;;;;18.23;17.02;;;25.40;99.90;;;;;;5246966;28;20035;-68
2023/06/01 11:26:36;;;;;;;19.05;17.38;;;25.40;99.90;;;;;;5246938;28;20028;-67
2023/06/01 11:29:13;;;;;;;20.40;18.73;;;25.60;99.90;;;;;;5246896;28;20033;-68
2023/06/01 11:31:53;;;;;;;20.98;19.67;;;25.50;99.90;;;;;;5246880;28;20032;-68
2023/06/01 11:34:41;;;;;;;19.50;18.20;;;25.50;99.90;;;;;;5228843;28;20025;-68
2023/06/01 11:37:16;;;;;;;21.35;19.88;;;25.70;99.90;;;;;;5246810;28;20036;-71
2023/06/01 11:39:48;;;;;;;22.42;21.00;;;25.50;99.90;;;;;;5246664;28;20021;-69
2023/06/01 11:42:21;;;;;;;21.35;19.85;;;25.50;99.90;;;;;;5246714;28;20040;-69
2023/06/01 11:44:59;;;;;;;25.70;24.00;;;25.60;99.90;;;;;;5246808;28;20528;-66
2023/06/01 11:47:31;;;;;;;24.08;22.42;;;25.50;99.90;;;;;;5246206;28;20106;-67
2023/06/01 11:50:01;;;;;;;25.92;24.35;;;25.70;99.90;;;;;;5246660;28;20032;-67
2023/06/01 11:52:34;;;;;;;27.42;25.83;;;25.60;99.90;;;;;;5248362;28;20012;-66
2023/06/01 11:55:05;;;;;;;27.10;25.15;;;25.60;99.90;;;;;;5250834;28;20074;-67
2023/06/01 11:57:40;;;;;;;27.30;25.60;;;25.70;99.90;;;;;;5250852;28;20024;-67
2023/06/01 12:00:15;;;;;;;28.95;27.25;;;25.80;99.90;;;;;;5250839;28;20472;-67
2023/06/01 12:02:46;;;;;;;31.40;29.25;;;25.40;99.90;;;;;;5250622;28;20376;-70
2023/06/01 12:05:17;;;;;;;31.00;28.90;;;25.60;99.90;;;;;;5250483;28;20028;-67
2023/06/01 12:07:53;;;;;;;30.38;28.58;;;25.70;99.90;;;;;;5250280;28;20036;-67
2023/06/01 12:10:24;;;;;;;28.00;26.27;;;25.80;99.90;;;;;;5250528;28;20032;-67
2023/06/01 12:12:55;;;;;;;30.90;29.00;;;25.80;99.90;;;;;;5250216;28;20013;-67
2023/06/01 12:15:26;;;;;;;33.35;31.25;;;25.70;99.90;;;;;;5250289;28;20032;-67
2023/06/01 12:17:57;;;;;;;32.85;30.95;;;25.70;99.90;;;;;;5250062;28;20520;-69
2023/06/01 12:20:33;;;;;;;32.63;30.70;;;25.60;99.90;;;;;;5250184;28;20142;-68
2023/06/01 12:23:19;;;;;;;31.55;29.65;;;25.70;99.90;;;;;;5250199;28;20017;-68
2023/06/01 12:25:53;;;;;;;31.52;29.70;;;25.60;99.90;;;;;;5250043;28;20056;-67
2023/06/01 12:28:25;;;;;;;31.83;29.88;;;25.70;99.90;;;;;;5249870;28;20056;-67
2023/06/01 12:31:13;;;;;;;31.33;29.52;;;25.70;99.90;;;;;;5249952;28;20115;-67
2023/06/01 12:33:45;;;;;;;32.17;30.27;;;25.50;99.90;;;;;;5249975;28;20021;-69
2023/06/01 12:36:35;;;;;;;33.42;31.42;;;25.90;99.90;;;;;;5249904;28;20078;-67
2023/06/01 12:39:06;;;;;;;32.03;29.98;;;25.80;99.90;;;;;;5249847;28;20028;-71
2023/06/01 12:41:47;;;;;;;33.00;30.80;;;25.60;99.90;;;;;;5249682;28;20419;-67
2023/06/01 12:44:20;;;;;;;32.35;30.25;;;25.80;99.90;;;;;;5231874;28;20029;-69
2023/06/01 12:46:57;;;;;;;30.33;28.48;;;25.70;99.90;;;;;;5249361;28;20075;-67
2023/06/01 12:49:28;;;;;;;31.90;29.83;;;25.70;99.90;;;;;;5249390;28;20087;-67
2023/06/01 12:51:59;;;;;;;33.28;31.33;;;25.60;99.90;;;;;;5249558;28;20075;-68
2023/06/01 12:54:30;;;;;;;33.67;31.48;;;25.60;99.90;;;;;;5249587;28;20052;-69
2023/06/01 12:57:01;;;;;;;31.75;29.88;;;25.40;99.90;;;;;;5249421;28;20063;-69